메인 페이지
METAR-TAF:

METAR-TAF

공항 :

Garden City, 캔자스, 미국

위도: 37-55-39N, 경도: 100-43-28W, 고도: 881m

현재 날씨관측

예보는 46분 전, 13:54시(UTC)에 발표되었습니다.
남남서11kt
온도 16°C
습도 88%
기압 1007 hPa
시정: 16.1km
맑음

METAR: KGCK 221354Z 21011KT 10SM CLR 16/14 A2973 RMK AO2 SLP055 T01560144

시각: 09:40 (14:40 UTC)

예보

예보는 2 시간 6분 전, 12:34시(UTC)에 발표되었습니다.
예보 대상 시간: 22일 13시부터 23일 12시까지 (UTC)
남남서12kt, 순간 최대 풍속 20kt
시정: 10km
고도 20000ft 상공 구름 조금
22일 2100시부터 (UTC)
북북동25kt, 순간 최대 풍속 35kt
시정: 8.0km
고도 20000ft 상공 구름 보통
날린먼지
23일 0200시부터 (UTC)
25kt, 순간 최대 풍속 35kt
시정: 10km
고도 3000ft 상공 구름 보통

TAF: KGCK 221234Z 2213/2312 20012G20KT P6SM FEW200 FM222100 02025G35KT 5SM BLDU SCT200 FM230200 01025G35KT P6SM SCT030

4,000개 이상의 공항 관측 자료 및 예보 (METAR 및 TAF 보고).

지도상에서 검색 가능한 기상관측소가 노란 점과 빨간 점으로 표시되어 있습니다.

기상관측소 명을 보려면 표시 위로 마우스를 이동하세요.

날씨 관측과 예보를 보려면 클릭하세요.

지도 변경 : 확대하려면 엑스 표시가 있는 녹색 버튼, 축소하려면 빼기 표시가 있는 녹색 버튼, 다음 페이지의 지도를 보려면 녹색 화살표를 클릭하세요.


METAR-TAF: